createdAt,value
2018-08-17T00:00:42.609Z,101229.75
2018-08-17T00:03:11.919Z,101227.67
2018-08-17T00:05:41.270Z,101232.80
2018-08-17T00:08:10.705Z,101228.16
2018-08-17T00:10:40.041Z,101228.36
2018-08-17T00:13:09.381Z,101230.04
2018-08-17T00:15:38.675Z,101236.47
2018-08-17T00:18:08.004Z,101234.63
2018-08-17T00:20:37.828Z,101241.99
2018-08-17T00:23:07.175Z,101235.38
2018-08-17T00:25:36.595Z,101233.99
2018-08-17T00:28:05.926Z,101229.75
2018-08-17T00:30:35.238Z,101234.37
2018-08-17T00:33:04.579Z,101229.63
2018-08-17T00:35:33.933Z,101230.64
2018-08-17T00:38:03.366Z,101230.49
2018-08-17T00:40:32.670Z,101234.95
2018-08-17T00:43:02.266Z,101230.50
2018-08-17T00:45:31.709Z,101240.64
2018-08-17T00:48:01.379Z,101239.56
2018-08-17T00:50:30.894Z,101241.03
2018-08-17T00:53:00.194Z,101252.68
2018-08-17T00:55:29.502Z,101248.77
2018-08-17T00:57:58.798Z,101247.16
2018-08-17T01:00:28.187Z,101244.39
2018-08-17T01:02:57.617Z,101244.59
2018-08-17T01:05:27.306Z,101250.80
2018-08-17T01:07:56.698Z,101250.92
2018-08-17T01:10:26.091Z,101246.56
2018-08-17T01:12:55.582Z,101251.33
2018-08-17T01:15:24.919Z,101247.56
2018-08-17T01:17:54.490Z,101251.63
2018-08-17T01:20:23.899Z,101246.11
2018-08-17T01:22:53.197Z,101245.27
2018-08-17T01:25:22.470Z,101249.02
2018-08-17T01:27:52.227Z,101244.88
2018-08-17T01:30:21.578Z,101239.98
2018-08-17T01:32:50.866Z,101238.80
2018-08-17T01:35:20.160Z,101232.63
2018-08-17T01:37:49.436Z,101227.27
2018-08-17T01:40:18.877Z,101227.49
2018-08-17T01:42:48.247Z,101230.17
2018-08-17T01:45:17.611Z,101229.25
2018-08-17T01:47:46.899Z,101226.02
2018-08-17T01:50:16.859Z,101221.27
2018-08-17T01:52:46.147Z,101227.25
2018-08-17T01:55:15.452Z,101233.07
2018-08-17T01:57:44.763Z,101227.16
2018-08-17T02:00:14.116Z,101229.39
2018-08-17T02:02:43.678Z,101232.45
2018-08-17T02:05:12.963Z,101228.16
2018-08-17T02:07:42.230Z,101223.56
2018-08-17T02:10:12.729Z,101222.80
2018-08-17T02:12:42.403Z,101222.19
2018-08-17T02:15:11.690Z,101224.70
2018-08-17T02:17:41.067Z,101219.41
2018-08-17T02:20:10.620Z,101216.67
2018-08-17T02:22:39.915Z,101221.09
2018-08-17T02:25:09.232Z,101218.26
2018-08-17T02:27:38.546Z,101220.79
2018-08-17T02:30:08.283Z,101214.67
2018-08-17T02:32:37.605Z,101208.83
2018-08-17T02:35:07.088Z,101213.59
2018-08-17T02:37:36.366Z,101219.96
2018-08-17T02:40:06.647Z,101220.42
2018-08-17T02:42:35.949Z,101217.72
2018-08-17T02:45:06.015Z,101221.55
2018-08-17T02:47:35.289Z,101220.34
2018-08-17T02:50:05.332Z,101229.23
2018-08-17T02:52:34.608Z,101227.69
2018-08-17T02:55:03.892Z,101224.13
2018-08-17T02:57:34.190Z,101228.41
2018-08-17T03:00:03.519Z,101223.11
2018-08-17T03:02:32.861Z,101229.45
2018-08-17T03:05:02.225Z,101231.47
2018-08-17T03:07:31.670Z,101236.37
2018-08-17T03:10:00.963Z,101233.80
2018-08-17T03:12:30.276Z,101234.86
2018-08-17T03:14:59.607Z,101234.96
2018-08-17T03:17:29.141Z,101238.95
2018-08-17T03:19:58.989Z,101238.06
2018-08-17T03:22:28.326Z,101243.58
2018-08-17T03:24:57.694Z,101254.95
2018-08-17T03:27:27.076Z,101256.69
2018-08-17T03:29:56.377Z,101258.67
2018-08-17T03:32:25.682Z,101261.61
2018-08-17T03:34:55.038Z,101263.37
2018-08-17T03:37:24.379Z,101267.56
2018-08-17T03:39:53.969Z,101263.48
2018-08-17T03:42:23.538Z,101263.58
2018-08-17T03:44:52.837Z,101272.20
2018-08-17T03:47:22.159Z,101266.91
2018-08-17T03:49:51.494Z,101266.44
2018-08-17T03:52:20.931Z,101269.81
2018-08-17T03:54:50.256Z,101275.59
2018-08-17T03:57:19.555Z,101277.17
2018-08-17T03:59:48.847Z,101278.64
2018-08-17T04:02:18.176Z,101274.17
2018-08-17T04:04:47.695Z,101278.71
2018-08-17T04:07:17.004Z,101282.65
2018-08-17T04:09:46.483Z,101275.91
2018-08-17T04:12:15.835Z,101268.53
2018-08-17T04:14:45.231Z,101271.56
2018-08-17T04:17:14.712Z,101274.22
2018-08-17T04:19:44.218Z,101276.57
2018-08-17T04:22:13.512Z,101280.19
2018-08-17T04:24:42.827Z,101277.77
2018-08-17T04:27:12.563Z,101284.78
2018-08-17T04:29:41.843Z,101288.16
2018-08-17T04:32:12.025Z,101285.19
2018-08-17T04:34:41.341Z,101288.38
2018-08-17T04:37:10.619Z,101285.14
2018-08-17T04:39:39.946Z,101289.50
2018-08-17T04:42:09.837Z,101296.50
2018-08-17T04:44:39.195Z,101294.52
2018-08-17T04:47:09.077Z,101298.03
2018-08-17T04:49:38.862Z,101300.52
2018-08-17T04:52:08.459Z,101304.66
2018-08-17T04:54:37.803Z,101308.48
2018-08-17T04:57:07.204Z,101306.84
2018-08-17T04:59:36.599Z,101305.45
2018-08-17T05:02:05.946Z,101309.50
2018-08-17T05:04:35.337Z,101304.69
2018-08-17T05:07:04.662Z,101308.86
2018-08-17T05:09:34.061Z,101306.55
2018-08-17T05:12:03.902Z,101315.61
2018-08-17T05:14:39.478Z,101319.89
2018-08-17T05:17:08.802Z,101321.98
2018-08-17T05:19:38.432Z,101321.32
2018-08-17T05:22:07.782Z,101330.25
2018-08-17T05:24:37.112Z,101339.27
2018-08-17T05:27:06.557Z,101344.02
2018-08-17T05:29:35.848Z,101342.96
2018-08-17T05:32:05.671Z,101354.80
2018-08-17T05:34:34.978Z,101348.00
2018-08-17T05:37:04.432Z,101354.75
2018-08-17T05:39:36.678Z,101353.23
2018-08-17T05:42:05.959Z,101350.55
2018-08-17T05:44:35.285Z,101347.62
2018-08-17T05:47:04.636Z,101351.84
2018-08-17T05:49:33.926Z,101349.41
2018-08-17T05:52:03.404Z,101345.27
2018-08-17T05:54:32.689Z,101337.44
2018-08-17T05:57:02.243Z,101343.11
2018-08-17T05:59:31.879Z,101351.86
2018-08-17T06:02:01.460Z,101353.86
2018-08-17T06:04:30.795Z,101359.61
2018-08-17T06:07:00.083Z,101354.47
2018-08-17T06:09:29.510Z,101350.50
2018-08-17T06:11:58.869Z,101352.61
2018-08-17T06:14:28.697Z,101350.27
2018-08-17T06:16:58.064Z,101348.52
2018-08-17T06:19:27.399Z,101346.42
2018-08-17T06:21:56.797Z,101346.48
2018-08-17T06:24:26.134Z,101353.89
2018-08-17T06:26:55.616Z,101367.60
2018-08-17T06:29:24.980Z,101367.17
2018-08-17T06:31:54.355Z,101361.85
2018-08-17T06:34:23.691Z,101368.73
2018-08-17T06:36:53.399Z,101363.33
2018-08-17T06:39:22.697Z,101374.28
2018-08-17T06:41:52.175Z,101369.03
2018-08-17T06:44:21.503Z,101370.42
2018-08-17T06:46:50.854Z,101372.97
2018-08-17T06:49:20.309Z,101365.98
2018-08-17T06:51:49.759Z,101365.63
2018-08-17T06:54:19.226Z,101361.12
2018-08-17T06:56:48.537Z,101367.78
2018-08-17T06:59:18.278Z,101375.45
2018-08-17T07:01:47.595Z,101381.09
2018-08-17T07:04:16.927Z,101381.20
2018-08-17T07:06:46.319Z,101386.10
2018-08-17T07:09:15.702Z,101389.52
2018-08-17T07:11:45.099Z,101395.38
2018-08-17T07:14:14.551Z,101395.23
2018-08-17T07:16:43.989Z,101400.48
2018-08-17T07:19:13.310Z,101402.46
2018-08-17T07:21:43.019Z,101401.23
2018-08-17T07:24:12.331Z,101393.94
2018-08-17T07:26:41.743Z,101392.19
2018-08-17T07:29:11.108Z,101401.17
2018-08-17T07:31:40.436Z,101392.67
2018-08-17T07:34:09.728Z,101389.98
2018-08-17T07:36:39.283Z,101387.34
2018-08-17T07:39:08.786Z,101388.30
2018-08-17T07:41:38.089Z,101386.30
2018-08-17T07:44:08.014Z,101393.23
2018-08-17T07:46:37.353Z,101394.22
2018-08-17T07:49:06.611Z,101393.02
2018-08-17T07:51:35.942Z,101393.57
2018-08-17T07:54:05.220Z,101391.05
2018-08-17T07:56:34.794Z,101382.37
2018-08-17T07:59:04.163Z,101388.75
2018-08-17T08:01:33.637Z,101390.82
2018-08-17T08:04:03.019Z,101387.11
2018-08-17T08:06:32.599Z,101387.04
2018-08-17T08:09:01.875Z,101384.88
2018-08-17T08:11:31.304Z,101388.22
2018-08-17T08:14:00.727Z,101377.64
2018-08-17T08:16:30.120Z,101377.83
2018-08-17T08:18:59.463Z,101376.19
2018-08-17T08:21:28.828Z,101374.40
2018-08-17T08:23:58.183Z,101385.03
2018-08-17T08:26:27.507Z,101387.66
2018-08-17T08:28:57.060Z,101395.00
2018-08-17T08:31:26.381Z,101393.91
2018-08-17T08:33:55.787Z,101399.75
2018-08-17T08:36:25.132Z,101407.34
2018-08-17T08:38:54.527Z,101408.45
2018-08-17T08:41:23.867Z,101408.73
2018-08-17T08:43:53.268Z,101411.80
2018-08-17T08:46:22.650Z,101421.31
2018-08-17T08:48:52.032Z,101420.23
2018-08-17T08:51:21.803Z,101418.55
2018-08-17T08:53:51.491Z,101417.43
2018-08-17T08:56:20.812Z,101431.33
2018-08-17T08:58:50.127Z,101433.30
2018-08-17T09:01:19.459Z,101433.17
2018-08-17T09:03:48.773Z,101429.07
2018-08-17T09:06:18.375Z,101427.84
2018-08-17T09:08:48.009Z,101426.91
2018-08-17T09:11:17.409Z,101427.79
2018-08-17T09:13:47.188Z,101427.55
2018-08-17T09:16:16.742Z,101420.86
2018-08-17T09:18:46.483Z,101430.08
2018-08-17T09:21:15.879Z,101431.52
2018-08-17T09:23:45.211Z,101426.65
2018-08-17T09:26:14.511Z,101441.13
2018-08-17T09:28:43.854Z,101445.09
2018-08-17T09:31:13.264Z,101441.00
2018-08-17T09:33:42.559Z,101438.45
2018-08-17T09:36:12.554Z,101444.45
2018-08-17T09:38:41.898Z,101441.20
2018-08-17T09:41:11.623Z,101428.47
2018-08-17T09:43:41.043Z,101431.88
2018-08-17T09:46:10.715Z,101422.45
2018-08-17T09:48:40.128Z,101419.36
2018-08-17T09:51:09.510Z,101429.94
2018-08-17T09:53:38.850Z,101424.48
2018-08-17T09:56:08.241Z,101432.33
2018-08-17T09:58:38.293Z,101437.50
2018-08-17T10:01:12.788Z,101428.62
2018-08-17T10:03:48.024Z,101437.08
2018-08-17T10:06:22.606Z,101435.88
2018-08-17T10:08:57.184Z,101447.70
2018-08-17T10:11:27.229Z,101440.75
2018-08-17T10:13:56.965Z,101446.34
2018-08-17T10:16:26.924Z,101448.85
2018-08-17T10:18:56.264Z,101445.95
2018-08-17T10:21:25.785Z,101444.28
2018-08-17T10:23:54.875Z,101451.33
2018-08-17T10:26:24.583Z,101444.70
2018-08-17T10:28:53.918Z,101441.38
2018-08-17T10:31:23.392Z,101441.99
2018-08-17T10:33:52.794Z,101452.94
2018-08-17T10:36:22.090Z,101446.75
2018-08-17T10:38:51.492Z,101449.82
2018-08-17T10:41:20.831Z,101442.10
2018-08-17T10:43:50.157Z,101445.38
2018-08-17T10:46:19.592Z,101442.48
2018-08-17T10:48:49.015Z,101440.20
2018-08-17T10:51:18.235Z,101433.55
2018-08-17T10:53:48.194Z,101436.45
2018-08-17T10:56:17.814Z,101429.42
2018-08-17T10:58:47.160Z,101438.44
2018-08-17T11:01:16.637Z,101433.09
2018-08-17T11:03:45.966Z,101432.59
2018-08-17T11:06:15.344Z,101433.28
2018-08-17T11:08:44.718Z,101429.02
2018-08-17T11:11:14.610Z,101431.53
2018-08-17T11:13:43.921Z,101435.48
2018-08-17T11:16:13.363Z,101433.31
2018-08-17T11:18:42.686Z,101435.05
2018-08-17T11:21:12.004Z,101443.56
2018-08-17T11:23:41.784Z,101437.88
2018-08-17T11:26:11.245Z,101436.98
2018-08-17T11:28:40.580Z,101443.36
2018-08-17T11:31:09.972Z,101443.66
2018-08-17T11:33:39.378Z,101449.92
2018-08-17T11:36:08.768Z,101450.30
2018-08-17T11:38:38.252Z,101459.08
2018-08-17T11:41:11.192Z,101459.63
2018-08-17T11:43:40.872Z,101455.06
2018-08-17T11:46:10.208Z,101449.66
2018-08-17T11:48:39.588Z,101457.16
2018-08-17T11:51:08.671Z,101455.11
2018-08-17T11:53:38.206Z,101460.78
2018-08-17T11:56:07.638Z,101463.50
2018-08-17T11:58:37.062Z,101462.75
2018-08-17T12:01:13.855Z,101468.35
2018-08-17T12:03:43.471Z,101474.23
2018-08-17T12:06:12.860Z,101469.17
2018-08-17T12:08:42.511Z,101469.17
2018-08-17T12:11:11.786Z,101469.71
2018-08-17T12:13:42.027Z,101477.13
2018-08-17T12:16:13.112Z,101480.83
2018-08-17T12:18:42.860Z,101477.32
2018-08-17T12:21:12.330Z,101474.78
2018-08-17T12:23:41.930Z,101469.48
2018-08-17T12:26:11.282Z,101469.09
2018-08-17T12:28:40.629Z,101473.37
2018-08-17T12:31:10.123Z,101478.11
2018-08-17T12:33:39.531Z,101487.73
2018-08-17T12:36:08.903Z,101484.36
2018-08-17T12:38:38.277Z,101484.62
2018-08-17T12:41:07.664Z,101492.42
2018-08-17T12:43:39.078Z,101498.30
2018-08-17T12:46:08.622Z,101500.97
2018-08-17T12:48:38.232Z,101500.46
2018-08-17T12:51:08.768Z,101503.46
2018-08-17T12:53:38.332Z,101514.73
2018-08-17T12:56:07.654Z,101529.71
2018-08-17T12:58:37.114Z,101526.52
2018-08-17T13:01:06.435Z,101519.53
2018-08-17T13:03:35.741Z,101525.20
2018-08-17T13:06:05.372Z,101531.37
2018-08-17T13:08:34.661Z,101516.99
2018-08-17T13:11:03.962Z,101517.28
2018-08-17T13:13:33.521Z,101522.83
2018-08-17T13:16:04.802Z,101517.38
2018-08-17T13:18:37.511Z,101514.69
2018-08-17T13:21:07.363Z,101522.69
2018-08-17T13:23:36.722Z,101523.20
2018-08-17T13:26:06.155Z,101512.41
2018-08-17T13:28:35.518Z,101512.08
2018-08-17T13:31:05.006Z,101511.59
2018-08-17T13:33:34.551Z,101510.73
2018-08-17T13:36:03.958Z,101508.51
2018-08-17T13:38:33.227Z,101504.37
2018-08-17T13:41:02.540Z,101505.53
2018-08-17T13:43:31.940Z,101506.38
2018-08-17T13:46:01.249Z,101512.53
2018-08-17T13:48:31.133Z,101514.20
2018-08-17T13:51:00.422Z,101515.05
2018-08-17T13:53:29.854Z,101516.98
2018-08-17T13:55:59.179Z,101508.89
2018-08-17T13:58:28.485Z,101504.97
2018-08-17T14:00:57.811Z,101510.47
2018-08-17T14:03:34.715Z,101510.45
2018-08-17T14:06:04.453Z,101504.80
2018-08-17T14:08:33.936Z,101515.70
2018-08-17T14:11:03.401Z,101526.36
2018-08-17T14:13:32.764Z,101508.11
2018-08-17T14:16:02.129Z,101504.52
2018-08-17T14:18:31.485Z,101512.56
2018-08-17T14:21:00.770Z,101514.32
2018-08-17T14:23:30.103Z,101514.44
2018-08-17T14:25:59.485Z,101513.52
2018-08-17T14:28:28.856Z,101518.00
2018-08-17T14:30:58.167Z,101515.17
2018-08-17T14:33:27.540Z,101514.55
2018-08-17T14:35:56.865Z,101517.61
2018-08-17T14:38:34.943Z,101530.23
2018-08-17T14:41:04.910Z,101525.30
2018-08-17T14:43:34.852Z,101531.79
2018-08-17T14:46:04.320Z,101531.53
2018-08-17T14:48:33.614Z,101538.87
2018-08-17T14:51:02.950Z,101536.79
2018-08-17T14:53:32.440Z,101531.86
2018-08-17T14:56:01.974Z,101548.49
2018-08-17T14:58:31.276Z,101541.58
2018-08-17T15:01:00.632Z,101542.41
2018-08-17T15:03:30.251Z,101548.77
2018-08-17T15:05:59.525Z,101546.07
2018-08-17T15:08:29.083Z,101547.61
2018-08-17T15:10:58.738Z,101546.17
2018-08-17T15:13:28.014Z,101541.17
2018-08-17T15:15:57.684Z,101537.28
2018-08-17T15:18:27.030Z,101544.05
2018-08-17T15:20:56.292Z,101538.31
2018-08-17T15:23:25.665Z,101539.02
2018-08-17T15:25:54.950Z,101539.94
2018-08-17T15:28:24.287Z,101543.02
2018-08-17T15:30:53.935Z,101544.33
2018-08-17T15:33:26.127Z,101537.16
2018-08-17T15:35:56.309Z,101544.86
2018-08-17T15:38:25.587Z,101535.47
2018-08-17T15:40:54.980Z,101540.30
2018-08-17T15:43:24.190Z,101537.08
2018-08-17T15:45:53.492Z,101537.23
2018-08-17T15:48:22.787Z,101537.52
2018-08-17T15:50:59.213Z,101536.47
2018-08-17T15:53:28.462Z,101536.91
2018-08-17T15:55:57.756Z,101536.58
2018-08-17T15:58:27.098Z,101529.98
2018-08-17T16:00:56.400Z,101530.30
2018-08-17T16:03:25.790Z,101542.34
2018-08-17T16:05:55.187Z,101541.78
2018-08-17T16:08:24.513Z,101539.70
2018-08-17T16:10:53.886Z,101535.64
2018-08-17T16:13:23.330Z,101534.39
2018-08-17T16:15:52.728Z,101527.25
2018-08-17T16:18:22.061Z,101529.42
2018-08-17T16:20:51.422Z,101531.44
2018-08-17T16:23:20.759Z,101533.05
2018-08-17T16:25:50.184Z,101531.95
2018-08-17T16:28:19.474Z,101536.99
2018-08-17T16:30:49.082Z,101529.55
2018-08-17T16:33:18.463Z,101532.09
2018-08-17T16:35:47.953Z,101539.70
2018-08-17T16:38:17.400Z,101545.66
2018-08-17T16:40:52.255Z,101544.09
2018-08-17T16:43:28.496Z,101553.70
2018-08-17T16:45:57.955Z,101558.11
2018-08-17T16:48:27.241Z,101566.20
2018-08-17T16:50:56.835Z,101552.41
2018-08-17T16:53:26.865Z,101556.13
2018-08-17T16:55:56.305Z,101563.86
2018-08-17T16:58:25.635Z,101560.08
2018-08-17T17:00:55.824Z,101565.53
2018-08-17T17:03:25.174Z,101565.44
2018-08-17T17:06:00.039Z,101564.95
2018-08-17T17:08:29.765Z,101567.22
2018-08-17T17:10:59.884Z,101572.58
2018-08-17T17:13:29.672Z,101576.66
2018-08-17T17:15:59.255Z,101578.66
2018-08-17T17:18:28.624Z,101563.73
2018-08-17T17:20:58.302Z,101571.44
2018-08-17T17:23:27.632Z,101581.75
2018-08-17T17:25:57.009Z,101578.39
2018-08-17T17:28:32.040Z,101572.60
2018-08-17T17:31:01.421Z,101575.98
2018-08-17T17:33:30.772Z,101581.86
2018-08-17T17:36:00.151Z,101579.06
2018-08-17T17:38:30.569Z,101579.50
2018-08-17T17:40:59.971Z,101579.40
2018-08-17T17:43:30.925Z,101574.70
2018-08-17T17:46:00.345Z,101580.58
2018-08-17T17:48:30.451Z,101588.14
2018-08-17T17:51:00.121Z,101589.50
2018-08-17T17:53:29.433Z,101587.20
2018-08-17T17:55:58.751Z,101588.80
2018-08-17T17:58:28.157Z,101581.41
2018-08-17T18:01:02.667Z,101590.45
2018-08-17T18:03:33.435Z,101584.99
2018-08-17T18:06:08.233Z,101592.15
2018-08-17T18:08:37.942Z,101592.12
2018-08-17T18:11:07.346Z,101597.80
2018-08-17T18:13:37.173Z,101595.26
2018-08-17T18:16:06.456Z,101596.39
2018-08-17T18:18:35.744Z,101599.70
2018-08-17T18:21:05.087Z,101605.16
2018-08-17T18:23:34.546Z,101607.63
2018-08-17T18:26:09.233Z,101610.09
2018-08-17T18:28:38.626Z,101601.34
2018-08-17T18:31:08.001Z,101605.88
2018-08-17T18:33:37.450Z,101606.70
2018-08-17T18:36:06.829Z,101607.17
2018-08-17T18:38:36.135Z,101612.45
2018-08-17T18:41:05.424Z,101605.48
2018-08-17T18:43:35.427Z,101609.37
2018-08-17T18:46:04.853Z,101610.38
2018-08-17T18:48:34.408Z,101616.03
2018-08-17T18:51:03.816Z,101616.07
2018-08-17T18:53:33.202Z,101616.59
2018-08-17T18:56:02.649Z,101624.70
2018-08-17T18:58:31.981Z,101625.06
2018-08-17T19:01:01.272Z,101624.44
2018-08-17T19:03:30.737Z,101633.58
2018-08-17T19:06:00.228Z,101635.95
2018-08-17T19:08:29.786Z,101639.20
2018-08-17T19:10:59.782Z,101638.96
2018-08-17T19:13:29.120Z,101638.96
2018-08-17T19:15:58.568Z,101644.24
2018-08-17T19:18:33.276Z,101641.38
2018-08-17T19:21:10.982Z,101643.39
2018-08-17T19:23:40.380Z,101645.52
2018-08-17T19:26:10.596Z,101652.73
2018-08-17T19:28:39.947Z,101646.77
2018-08-17T19:31:09.660Z,101654.43
2018-08-17T19:33:39.106Z,101650.95
2018-08-17T19:36:08.470Z,101656.06
2018-08-17T19:38:42.692Z,101663.41
2018-08-17T19:41:12.082Z,101662.92
2018-08-17T19:43:42.018Z,101670.66
2018-08-17T19:46:11.920Z,101669.70
2018-08-17T19:48:41.758Z,101679.56
2018-08-17T19:51:17.075Z,101682.13
2018-08-17T19:53:46.870Z,101686.58
2018-08-17T19:56:17.068Z,101686.97
2018-08-17T19:58:46.699Z,101688.47
2018-08-17T20:01:16.038Z,101688.31
2018-08-17T20:03:45.451Z,101692.14
2018-08-17T20:06:14.973Z,101686.88
2018-08-17T20:08:44.508Z,101690.25
2018-08-17T20:11:13.887Z,101690.03
2018-08-17T20:13:43.350Z,101704.38
2018-08-17T20:16:19.691Z,101702.69
2018-08-17T20:18:49.136Z,101706.09
2018-08-17T20:21:23.853Z,101704.92
2018-08-17T20:23:54.945Z,101714.35
2018-08-17T20:26:26.027Z,101716.80
2018-08-17T20:28:55.693Z,101722.73
2018-08-17T20:31:25.486Z,101723.34
2018-08-17T20:33:55.292Z,101723.05
2018-08-17T20:36:24.934Z,101727.17
2018-08-17T20:38:54.320Z,101739.45
2018-08-17T20:41:23.740Z,101735.41
2018-08-17T20:43:53.476Z,101729.70
2018-08-17T20:46:23.217Z,101729.80
2018-08-17T20:48:52.910Z,101737.97
2018-08-17T20:51:26.676Z,101732.16
2018-08-17T20:53:59.122Z,101741.66
2018-08-17T20:56:28.802Z,101740.72
2018-08-17T20:58:58.149Z,101745.02
2018-08-17T21:01:27.571Z,101743.36
2018-08-17T21:03:57.103Z,101741.69
2018-08-17T21:06:26.425Z,101743.36
2018-08-17T21:08:56.163Z,101745.08
2018-08-17T21:11:25.648Z,101749.00
2018-08-17T21:13:55.317Z,101749.72
2018-08-17T21:16:24.807Z,101749.50
2018-08-17T21:18:54.504Z,101752.89
2018-08-17T21:21:23.838Z,101752.45
2018-08-17T21:23:53.279Z,101757.66
2018-08-17T21:26:22.998Z,101749.52
2018-08-17T21:28:52.513Z,101755.73
2018-08-17T21:31:21.827Z,101760.47
2018-08-17T21:33:51.371Z,101750.28
2018-08-17T21:36:20.892Z,101751.47
2018-08-17T21:39:13.158Z,101751.87
2018-08-17T21:41:44.847Z,101754.25
2018-08-17T21:44:16.027Z,101751.91
2018-08-17T21:46:54.011Z,101752.72
2018-08-17T21:49:24.634Z,101754.17
2018-08-17T21:51:57.874Z,101762.75
2018-08-17T21:54:29.167Z,101763.44
2018-08-17T21:56:59.047Z,101764.12
2018-08-17T22:00:00.088Z,101769.37
2018-08-17T22:02:29.594Z,101767.65
2018-08-17T22:04:58.901Z,101774.81
2018-08-17T22:07:31.334Z,101769.20
2018-08-17T22:10:00.795Z,101767.44
2018-08-17T22:12:31.636Z,101769.67
2018-08-17T22:15:01.332Z,101769.88
2018-08-17T22:17:37.235Z,101786.89
2018-08-17T22:20:10.034Z,101779.09
2018-08-17T22:22:39.484Z,101777.93
2018-08-17T22:25:14.853Z,101786.17
2018-08-17T22:27:44.237Z,101791.73
2018-08-17T22:30:21.293Z,101792.66
2018-08-17T22:32:50.623Z,101787.38
2018-08-17T22:35:20.078Z,101789.95
2018-08-17T22:37:49.625Z,101791.89
2018-08-17T22:40:18.982Z,101794.97
2018-08-17T22:42:49.690Z,101796.53
2018-08-17T22:45:19.146Z,101798.65
2018-08-17T22:47:49.432Z,101796.84
2018-08-17T22:50:18.744Z,101799.39
2018-08-17T22:52:48.160Z,101797.14
2018-08-17T22:55:18.264Z,101802.78
2018-08-17T22:57:48.139Z,101797.95
2018-08-17T23:00:25.743Z,101806.23
2018-08-17T23:02:56.734Z,101808.78
2018-08-17T23:05:28.217Z,101799.56
2018-08-17T23:07:57.683Z,101802.73
2018-08-17T23:10:28.014Z,101804.25
2018-08-17T23:12:58.611Z,101800.19
2018-08-17T23:15:28.364Z,101813.04
2018-08-17T23:17:59.718Z,101808.45
2018-08-17T23:20:34.599Z,101812.27
2018-08-17T23:23:05.458Z,101812.20
2018-08-17T23:25:35.493Z,101809.16
2018-08-17T23:28:05.467Z,101804.09
2018-08-17T23:30:35.539Z,101813.37
2018-08-17T23:33:05.357Z,101813.37
2018-08-17T23:35:35.037Z,101810.34
2018-08-17T23:38:04.725Z,101807.60
2018-08-17T23:40:34.603Z,101814.42
2018-08-17T23:43:04.092Z,101809.97
2018-08-17T23:45:33.603Z,101813.53
2018-08-17T23:48:03.382Z,101812.89
2018-08-17T23:50:33.406Z,101817.25
2018-08-17T23:53:03.449Z,101818.91
2018-08-17T23:55:33.148Z,101829.41
2018-08-17T23:58:02.847Z,101825.01
